Arches, Utah
Current Conditions -  °F | °C
As of 4:53 AM on Sunday 25 Jan 2015 (Local Time) from KCNY Reporting Station
Clear Clear  
Wind Chill: 22°   Ceiling: Unl
Heat Index: 22°   Visibility: 10mi
Dew Point: 19°   Wind: 0mph
Humidity: 89%   Direction: NA
Pressure: 30.36"   Gusts: NA
Location:  38.6903°N, 109.256°W
Report Text: KCNY 251153Z AUTO 00000KT 10SM CLR M06/M07 A3036 RMK AO2 SLP302 T10561072 10000 21067 56002
Loading
Personal Weather Stations






























Interactive Weather Map New forecast layout! Learn more

10-Day Weather Forecast

Advertisements
Track Severe Weather on mobile